Aérodrome :
LOGIN :

S'inscrire | Disclaimer

   EN    FR    IT 

 










Légende :    VFR   VFR Marginal   IFR   IFR Intensif   IFR Très Intensif
Visi : 
Plafond : 
>= 8 km
>= 3000ft
5 à 8 km
1000 à 3000 ft
1500m à 5 km
500 à 1000 ft
800 à 1500m
200 à 500 ft
< 800m
< 200 ft
Symboles :   Orages  Brouillard  Fortes neiges  Fortes précipitations  Vent > 20 kt
SIGMETs :   Divers  Orages  Givrage  Turbulence  Onde Orograph.  Cendres Volcan.






- Altitude de l'aérodrome : 0 ft


ENOA - Oseberg A Platform

DERNIER METAR :
  • 151020Z 13009KT 9999 FEW030 BKN045 05/03 Q0977 W///S4

METARs EXPIRÉS :
  • 150950Z 12011KT 9999 BKN030 05/03 Q0977 W///S4
  • 150911Z 12007KT 9999 FEW009 BKN045 04/03 Q0977 W///S4
  • 150850Z 15010KT 9999 SCT012 BKN030 04/03 Q0977 W///S4
  • 150820Z 14007KT 100V160 9999 -RA FEW012 BKN030 04/02 Q0977 W///S4
  • 150750Z 12012KT 9999 -RA FEW015 BKN030 04/02 Q0977 W///S4

TAF ENOA
Valide du 15 à 09h jusqu'au 16 à 09h UTC


1509/1609 13015KT 9999 -SHRA FEW012TCU BKN030
TEMPO 1509/1609 SHRA BKN012 SCT018CB
PROB30 1600/1606 TS
BECMG 1521/1523 24020KT



MET'MAP, la Météo Aéronautique d'un coup d'oeil ! - Copyright ORBIFLY Décembre 2007 - Disclaimer

ORBIFLY MET'MAP TEAM :

Programmation & Développement : Alexandra Zaïnal
Sur une idée originale de : Baudouin d'Aumeries
Assistance à la programmation : Marc-Olivier Méhu
Soutien technique & logistique : Manuel Goepfert

Contact : metmap@orbifly.com




SOURCES & CREDITS :

   NOAA